Time,TemperatureF,DewpointF,PressureIn,WindDirection,WindDirectionDegrees,WindSpeedMPH,WindSpeedGustMPH,Humidity,HourlyPrecipIn,Conditions,Clouds,dailyrainin,SolarRadiationWatts/m^2,SoftwareType,DateUTC
2013-02-11 00:00:00,39.7,37.3,30.23,WNW,301,0.0,0.0,91,0.00,,,0.07,0,Wunderground v.1.15,2013-02-11 05:00:00,
2013-02-11 00:10:00,39.7,37.6,30.22,WNW,301,0.0,0.0,92,0.00,,,0.01,0,Wunderground v.1.15,2013-02-11 05:10:00,
2013-02-11 00:15:00,39.6,37.5,30.22,WNW,301,0.0,1.0,92,0.00,,,0.01,0,Wunderground v.1.15,2013-02-11 05:15:00,
2013-02-11 00:20:00,39.5,37.4,30.22,WNW,301,1.0,1.0,92,0.00,,,0.01,0,Wunderground v.1.15,2013-02-11 05:20:00,
2013-02-11 00:25:00,39.4,37.3,30.21,WNW,301,1.0,1.0,92,0.00,,,0.01,0,Wunderground v.1.15,2013-02-11 05:25:00,
2013-02-11 00:30:00,39.4,37.3,30.21,WNW,301,0.0,0.0,92,0.00,,,0.01,0,Wunderground v.1.15,2013-02-11 05:30:00,
2013-02-11 00:35:00,39.3,37.2,30.21,WNW,301,0.0,0.0,92,0.00,,,0.01,0,Wunderground v.1.15,2013-02-11 05:35:00,
2013-02-11 00:45:00,39.3,37.2,30.21,WNW,301,0.0,0.0,92,0.00,,,0.01,0,Wunderground v.1.15,2013-02-11 05:45:00,
2013-02-11 00:50:00,39.3,37.2,30.21,WNW,301,0.0,0.0,92,0.00,,,0.01,0,Wunderground v.1.15,2013-02-11 05:50:00,
2013-02-11 01:00:00,39.2,37.1,30.21,WNW,301,0.0,0.0,92,0.00,,,0.01,0,Wunderground v.1.15,2013-02-11 06:00:00,
2013-02-11 01:05:00,39.2,37.3,30.21,WNW,301,0.0,0.0,93,0.00,,,0.01,0,Wunderground v.1.15,2013-02-11 06:05:00,
2013-02-11 01:10:00,39.3,37.4,30.21,WNW,301,0.0,0.0,93,0.00,,,0.01,0,Wunderground v.1.15,2013-02-11 06:10:00,
2013-02-11 01:20:00,39.2,37.3,30.22,WNW,301,0.0,0.0,93,0.00,,,0.01,0,Wunderground v.1.15,2013-02-11 06:20:00,
2013-02-11 01:30:00,39.3,37.4,30.21,WNW,301,0.0,0.0,93,0.00,,,0.01,0,Wunderground v.1.15,2013-02-11 06:30:00,
2013-02-11 01:35:00,39.3,37.4,30.21,WNW,301,0.0,0.0,93,0.00,,,0.01,0,Wunderground v.1.15,2013-02-11 06:35:00,
2013-02-11 01:45:00,39.3,37.4,30.20,WNW,301,0.0,0.0,93,0.00,,,0.01,0,Wunderground v.1.15,2013-02-11 06:45:00,
2013-02-11 01:50:00,39.3,37.4,30.19,WNW,301,0.0,0.0,93,0.00,,,0.01,0,Wunderground v.1.15,2013-02-11 06:50:00,
2013-02-11 02:00:00,39.4,37.8,30.20,WNW,301,0.0,0.0,94,0.00,,,0.01,0,Wunderground v.1.15,2013-02-11 07:00:00,
2013-02-11 02:05:00,39.4,37.8,30.21,WNW,301,0.0,0.0,94,0.00,,,0.01,0,Wunderground v.1.15,2013-02-11 07:05:00,
2013-02-11 02:10:00,39.4,37.8,30.20,WNW,301,0.0,0.0,94,0.00,,,0.01,0,Wunderground v.1.15,2013-02-11 07:10:00,
2013-02-11 02:20:00,39.5,37.9,30.20,WNW,301,0.0,0.0,94,0.00,,,0.02,0,Wunderground v.1.15,2013-02-11 07:20:00,
2013-02-11 02:25:00,39.5,37.9,30.20,WNW,301,0.0,0.0,94,0.00,,,0.02,0,Wunderground v.1.15,2013-02-11 07:25:00,
2013-02-11 02:35:00,39.6,38.0,30.19,WNW,301,0.0,0.0,94,0.00,,,0.02,0,Wunderground v.1.15,2013-02-11 07:35:00,
2013-02-11 02:40:00,39.6,38.0,30.19,WNW,301,0.0,0.0,94,0.00,,,0.02,0,Wunderground v.1.15,2013-02-11 07:40:00,
2013-02-11 02:50:00,39.7,38.1,30.17,WNW,301,0.0,0.0,94,0.00,,,0.02,0,Wunderground v.1.15,2013-02-11 07:50:00,
2013-02-11 02:55:00,39.7,38.4,30.17,WNW,301,0.0,0.0,95,0.00,,,0.02,0,Wunderground v.1.15,2013-02-11 07:55:00,
2013-02-11 03:05:00,39.7,38.4,30.17,WNW,301,0.0,0.0,95,0.00,,,0.02,0,Wunderground v.1.15,2013-02-11 08:05:00,
2013-02-11 03:10:00,39.7,38.1,30.17,WNW,301,0.0,0.0,94,0.00,,,0.02,0,Wunderground v.1.15,2013-02-11 08:10:00,
2013-02-11 03:20:00,39.8,38.5,30.16,WNW,301,0.0,1.0,95,0.00,,,0.02,0,Wunderground v.1.15,2013-02-11 08:20:00,
2013-02-11 03:25:00,39.8,38.5,30.16,WNW,301,0.0,1.0,95,0.00,,,0.02,0,Wunderground v.1.15,2013-02-11 08:25:00,
2013-02-11 03:35:00,39.8,38.5,30.15,WNW,301,0.0,1.0,95,0.00,,,0.02,0,Wunderground v.1.15,2013-02-11 08:35:00,
2013-02-11 03:40:00,39.7,38.4,30.16,WNW,301,0.0,0.0,95,0.00,,,0.02,0,Wunderground v.1.15,2013-02-11 08:40:00,
2013-02-11 03:50:00,39.7,38.4,30.16,WNW,301,1.0,1.0,95,0.00,,,0.02,0,Wunderground v.1.15,2013-02-11 08:50:00,
2013-02-11 03:55:00,39.7,38.4,30.15,WNW,301,1.0,1.0,95,0.00,,,0.03,0,Wunderground v.1.15,2013-02-11 08:55:00,
2013-02-11 04:00:00,39.7,38.4,30.15,WNW,301,1.0,1.0,95,0.07,,,0.04,0,Wunderground v.1.15,2013-02-11 09:00:00,
2013-02-11 04:05:00,39.6,38.3,30.15,WNW,301,0.0,1.0,95,0.07,,,0.04,0,Wunderground v.1.15,2013-02-11 09:05:00,
2013-02-11 04:15:00,39.6,38.3,30.14,WSW,247,0.0,1.0,95,0.04,,,0.04,0,Wunderground v.1.15,2013-02-11 09:15:00,
2013-02-11 04:20:00,39.6,38.3,30.15,WSW,247,1.0,2.0,95,0.00,,,0.04,0,Wunderground v.1.15,2013-02-11 09:20:00,
2013-02-11 04:30:00,39.7,38.7,30.15,WSW,247,0.0,1.0,96,0.00,,,0.05,0,Wunderground v.1.15,2013-02-11 09:30:00,
2013-02-11 04:35:00,39.7,38.7,30.14,WSW,247,0.0,1.0,96,0.00,,,0.05,0,Wunderground v.1.15,2013-02-11 09:35:00,
2013-02-11 04:40:00,39.7,38.7,30.14,WSW,247,0.0,1.0,96,0.00,,,0.05,0,Wunderground v.1.15,2013-02-11 09:40:00,
2013-02-11 04:50:00,39.8,38.8,30.13,WSW,247,1.0,1.0,96,0.00,,,0.05,0,Wunderground v.1.15,2013-02-11 09:50:00,
2013-02-11 04:55:00,39.9,38.9,30.13,WSW,246,1.0,1.0,96,0.00,,,0.06,0,Wunderground v.1.15,2013-02-11 09:55:00,
2013-02-11 05:05:00,40.0,39.0,30.15,WSW,239,2.0,2.0,96,0.00,,,0.06,0,Wunderground v.1.15,2013-02-11 10:05:00,
2013-02-11 05:10:00,40.0,39.0,30.14,SW,235,2.0,2.0,96,0.00,,,0.06,0,Wunderground v.1.15,2013-02-11 10:10:00,
2013-02-11 05:20:00,40.1,39.1,30.14,SW,233,2.0,2.0,96,0.00,,,0.06,0,Wunderground v.1.15,2013-02-11 10:20:00,
2013-02-11 05:25:00,40.2,39.2,30.14,SW,232,2.0,2.0,96,0.00,,,0.07,0,Wunderground v.1.15,2013-02-11 10:25:00,
2013-02-11 05:30:00,40.2,39.2,30.13,SW,233,2.0,2.0,96,0.00,,,0.07,0,Wunderground v.1.15,2013-02-11 10:30:00,
2013-02-11 05:40:00,40.2,39.2,30.13,SW,227,2.0,2.0,96,0.00,,,0.07,0,Wunderground v.1.15,2013-02-11 10:40:00,
2013-02-11 08:15:00,42.1,41.3,30.10,WSW,247,3.0,3.0,97,0.00,,,0.08,12,Wunderground v.1.15,2013-02-11 13:15:00,
2013-02-11 08:20:00,42.2,41.4,30.10,WSW,244,3.0,4.0,97,0.00,,,0.08,18,Wunderground v.1.15,2013-02-11 13:20:00,
2013-02-11 08:30:00,42.3,41.5,30.09,WSW,243,4.0,4.0,97,0.00,,,0.08,19,Wunderground v.1.15,2013-02-11 13:30:00,
2013-02-11 08:35:00,42.5,41.7,30.09,WSW,240,3.0,4.0,97,0.00,,,0.08,16,Wunderground v.1.15,2013-02-11 13:35:00,
2013-02-11 08:40:00,42.6,42.1,30.10,WSW,243,4.0,4.0,98,0.00,,,0.08,14,Wunderground v.1.15,2013-02-11 13:40:00,
2013-02-11 08:50:00,42.8,42.3,30.10,WSW,238,4.0,5.0,98,0.00,,,0.08,21,Wunderground v.1.15,2013-02-11 13:50:00,
2013-02-11 09:00:00,43.1,42.3,30.09,WSW,244,4.0,4.0,97,0.00,,,0.08,28,Wunderground v.1.15,2013-02-11 14:00:00,
2013-02-11 09:05:00,43.3,42.8,30.09,WSW,241,4.0,4.0,98,0.00,,,0.08,40,Wunderground v.1.15,2013-02-11 14:05:00,
2013-02-11 09:15:00,43.6,43.1,30.09,WSW,246,4.0,4.0,98,0.00,,,0.08,39,Wunderground v.1.15,2013-02-11 14:15:00,
2013-02-11 09:20:00,43.7,43.2,30.10,WSW,249,4.0,4.0,98,0.00,,,0.08,39,Wunderground v.1.15,2013-02-11 14:20:00,
2013-02-11 09:25:00,43.7,42.9,30.09,WSW,237,4.0,5.0,97,0.00,,,0.08,35,Wunderground v.1.15,2013-02-11 14:25:00,
2013-02-11 09:35:00,43.7,42.9,30.09,WSW,239,5.0,5.0,97,0.00,,,0.08,47,Wunderground v.1.15,2013-02-11 14:35:00,
2013-02-11 09:40:00,43.8,43.0,30.08,SW,233,4.0,4.0,97,0.00,,,0.08,54,Wunderground v.1.15,2013-02-11 14:40:00,
2013-02-11 09:50:00,44.1,43.6,30.07,WSW,239,5.0,5.0,98,0.00,,,0.08,62,Wunderground v.1.15,2013-02-11 14:50:00,
2013-02-11 09:55:00,44.4,43.9,30.08,WSW,244,4.0,7.0,98,0.00,,,0.08,56,Wunderground v.1.15,2013-02-11 14:55:00,
2013-02-11 10:00:00,44.6,44.1,30.08,WSW,245,4.0,4.0,98,0.00,,,0.08,56,Wunderground v.1.15,2013-02-11 15:00:00,
2013-02-11 10:10:00,45.0,44.5,30.07,WSW,241,4.0,4.0,98,0.00,,,0.08,30,Wunderground v.1.15,2013-02-11 15:10:00,
2013-02-11 10:15:00,45.1,44.6,30.07,WSW,239,5.0,9.0,98,0.00,,,0.08,49,Wunderground v.1.15,2013-02-11 15:15:00,
2013-02-11 12:55:00,50.1,49.3,30.00,WSW,251,6.0,6.0,97,0.00,,,0.08,102,Wunderground v.1.15,2013-02-11 17:55:00,
2013-02-11 13:00:00,50.0,49.2,30.00,WSW,243,6.0,7.0,97,0.00,,,0.08,83,Wunderground v.1.15,2013-02-11 18:00:00,
2013-02-11 13:10:00,49.8,49.0,29.98,West,261,5.0,6.0,97,0.00,,,0.08,74,Wunderground v.1.15,2013-02-11 18:10:00,
2013-02-11 13:15:00,49.8,49.0,29.98,WSW,252,5.0,6.0,97,0.00,,,0.08,74,Wunderground v.1.15,2013-02-11 18:15:00,
2013-02-11 13:25:00,49.9,49.1,29.99,WSW,255,5.0,5.0,97,0.00,,,0.08,93,Wunderground v.1.15,2013-02-11 18:25:00,
2013-02-11 13:30:00,50.1,49.3,29.99,WSW,250,4.0,4.0,97,0.00,,,0.08,109,Wunderground v.1.15,2013-02-11 18:30:00,
2013-02-11 13:35:00,50.4,49.6,29.98,WSW,237,5.0,7.0,97,0.00,,,0.08,109,Wunderground v.1.15,2013-02-11 18:35:00,
2013-02-11 13:45:00,50.5,49.7,29.98,SW,236,7.0,8.0,97,0.00,,,0.08,102,Wunderground v.1.15,2013-02-11 18:45:00,
2013-02-11 13:50:00,50.5,49.7,29.97,WSW,239,7.0,7.0,97,0.00,,,0.08,81,Wunderground v.1.15,2013-02-11 18:50:00,
2013-02-11 14:00:00,50.4,49.6,29.98,West,260,7.0,7.0,97,0.00,,,0.08,88,Wunderground v.1.15,2013-02-11 19:00:00,
2013-02-11 14:05:00,50.4,49.6,29.98,WSW,249,7.0,7.0,97,0.00,,,0.08,90,Wunderground v.1.15,2013-02-11 19:05:00,
2013-02-11 14:15:00,50.4,49.6,29.98,WSW,248,7.0,7.0,97,0.00,,,0.08,81,Wunderground v.1.15,2013-02-11 19:15:00,
2013-02-11 14:20:00,50.5,49.7,29.99,WSW,239,7.0,8.0,97,0.00,,,0.08,74,Wunderground v.1.15,2013-02-11 19:20:00,
2013-02-11 14:30:00,50.5,49.7,30.00,WSW,248,6.0,7.0,97,0.00,,,0.08,60,Wunderground v.1.15,2013-02-11 19:30:00,
2013-02-11 14:35:00,50.6,49.8,29.99,WSW,249,6.0,7.0,97,0.00,,,0.08,77,Wunderground v.1.15,2013-02-11 19:35:00,
2013-02-11 14:45:00,50.7,49.9,29.99,WSW,243,6.0,6.0,97,0.00,,,0.08,56,Wunderground v.1.15,2013-02-11 19:45:00,
2013-02-11 14:50:00,50.8,50.0,29.99,SW,235,5.0,5.0,97,0.00,,,0.08,76,Wunderground v.1.15,2013-02-11 19:50:00,
2013-02-11 15:00:00,51.1,50.3,29.97,SW,222,6.0,7.0,97,0.00,,,0.08,97,Wunderground v.1.15,2013-02-11 20:00:00,
2013-02-11 15:05:00,51.2,50.4,29.97,WSW,251,5.0,7.0,97,0.00,,,0.08,113,Wunderground v.1.15,2013-02-11 20:05:00,
2013-02-11 15:15:00,51.3,50.2,29.97,WSW,246,6.0,6.0,96,0.00,,,0.08,120,Wunderground v.1.15,2013-02-11 20:15:00,
2013-02-11 15:20:00,51.4,50.3,29.97,SW,222,5.0,5.0,96,0.00,,,0.08,111,Wunderground v.1.15,2013-02-11 20:20:00,
2013-02-11 15:30:00,51.5,50.4,29.96,WSW,239,5.0,5.0,96,0.00,,,0.08,95,Wunderground v.1.15,2013-02-11 20:30:00,
2013-02-11 15:35:00,51.5,50.4,29.96,WSW,254,5.0,5.0,96,0.00,,,0.08,93,Wunderground v.1.15,2013-02-11 20:35:00,
2013-02-11 15:45:00,51.6,50.5,29.97,WSW,253,5.0,7.0,96,0.00,,,0.08,79,Wunderground v.1.15,2013-02-11 20:45:00,
2013-02-11 15:50:00,51.7,50.6,29.96,WSW,249,4.0,4.0,96,0.00,,,0.08,81,Wunderground v.1.15,2013-02-11 20:50:00,
2013-02-11 16:00:00,51.7,50.6,29.96,SW,235,4.0,6.0,96,0.00,,,0.08,77,Wunderground v.1.15,2013-02-11 21:00:00,
2013-02-11 16:05:00,51.8,50.7,29.95,WSW,237,4.0,6.0,96,0.00,,,0.08,70,Wunderground v.1.15,2013-02-11 21:05:00,
2013-02-11 16:15:00,51.8,50.7,29.96,WSW,238,4.0,5.0,96,0.00,,,0.08,77,Wunderground v.1.15,2013-02-11 21:15:00,
2013-02-11 16:25:00,51.9,50.8,29.96,WSW,246,4.0,5.0,96,0.00,,,0.08,77,Wunderground v.1.15,2013-02-11 21:25:00,
2013-02-11 16:35:00,51.9,50.5,29.96,WSW,246,4.0,4.0,95,0.00,,,0.08,58,Wunderground v.1.15,2013-02-11 21:35:00,
2013-02-11 16:40:00,51.9,50.5,29.96,WSW,239,4.0,7.0,95,0.00,,,0.08,56,Wunderground v.1.15,2013-02-11 21:40:00,
2013-02-11 16:45:00,51.9,50.5,29.96,WSW,249,5.0,7.0,95,0.00,,,0.08,51,Wunderground v.1.15,2013-02-11 21:45:00,
2013-02-11 16:55:00,51.9,50.5,29.96,WSW,241,5.0,5.0,95,0.00,,,0.08,42,Wunderground v.1.15,2013-02-11 21:55:00,
2013-02-11 17:00:00,51.8,50.4,29.96,WSW,237,5.0,5.0,95,0.00,,,0.08,33,Wunderground v.1.15,2013-02-11 22:00:00,
2013-02-11 17:10:00,51.7,50.3,29.95,SW,220,6.0,7.0,95,0.00,,,0.08,28,Wunderground v.1.15,2013-02-11 22:10:00,
2013-02-11 17:15:00,51.7,50.6,29.95,WSW,243,5.0,7.0,96,0.00,,,0.08,23,Wunderground v.1.15,2013-02-11 22:15:00,
2013-02-11 17:25:00,51.9,50.8,29.95,WSW,247,6.0,8.0,96,0.00,,,0.08,19,Wunderground v.1.15,2013-02-11 22:25:00,
2013-02-11 17:35:00,52.0,50.9,29.94,WSW,256,6.0,6.0,96,0.00,,,0.08,9,Wunderground v.1.15,2013-02-11 22:35:00,
2013-02-11 17:40:00,52.0,50.9,29.94,West,260,6.0,10.0,96,0.00,,,0.08,5,Wunderground v.1.15,2013-02-11 22:40:00,
2013-02-11 17:50:00,51.9,50.8,29.94,SW,233,6.0,8.0,96,0.00,,,0.08,0,Wunderground v.1.15,2013-02-11 22:50:00,
2013-02-11 17:55:00,51.9,50.8,29.94,WSW,237,6.0,8.0,96,0.00,,,0.08,0,Wunderground v.1.15,2013-02-11 22:55:00,
2013-02-11 18:05:00,51.9,50.8,29.95,WSW,254,5.0,7.0,96,0.00,,,0.08,0,Wunderground v.1.15,2013-02-11 23:05:00,
2013-02-11 18:10:00,51.9,50.8,29.95,WSW,252,5.0,5.0,96,0.00,,,0.08,0,Wunderground v.1.15,2013-02-11 23:10:00,
2013-02-11 18:20:00,52.0,50.9,29.95,WSW,250,5.0,5.0,96,0.00,,,0.08,0,Wunderground v.1.15,2013-02-11 23:20:00,
2013-02-11 18:25:00,52.0,50.9,29.95,WSW,243,6.0,7.0,96,0.00,,,0.08,0,Wunderground v.1.15,2013-02-11 23:25:00,
2013-02-11 18:35:00,52.0,50.9,29.95,WSW,237,6.0,8.0,96,0.00,,,0.08,0,Wunderground v.1.15,2013-02-11 23:35:00,
2013-02-11 18:40:00,52.0,50.9,29.95,WSW,239,6.0,6.0,96,0.00,,,0.08,0,Wunderground v.1.15,2013-02-11 23:40:00,
2013-02-11 18:50:00,51.9,50.8,29.95,WSW,248,4.0,4.0,96,0.00,,,0.08,0,Wunderground v.1.15,2013-02-11 23:50:00,
2013-02-11 19:00:00,51.8,50.7,29.96,WSW,238,4.0,7.0,96,0.00,,,0.08,0,Wunderground v.1.15,2013-02-12 00:00:00,
2013-02-11 19:10:00,51.8,50.4,29.96,SW,233,6.0,6.0,95,0.00,,,0.08,0,Wunderground v.1.15,2013-02-12 00:10:00,
2013-02-11 19:15:00,51.9,50.2,29.96,WSW,238,7.0,7.0,94,0.00,,,0.08,0,Wunderground v.1.15,2013-02-12 00:15:00,
2013-02-11 19:25:00,52.3,50.0,29.96,WSW,246,7.0,7.0,92,0.00,,,0.08,0,Wunderground v.1.15,2013-02-12 00:25:00,
2013-02-11 19:30:00,52.3,50.0,29.96,WSW,256,6.0,8.0,92,0.00,,,0.08,0,Wunderground v.1.15,2013-02-12 00:30:00,
2013-02-11 19:40:00,52.3,49.8,29.96,WSW,250,5.0,8.0,91,0.00,,,0.08,0,Wunderground v.1.15,2013-02-12 00:40:00,
2013-02-11 19:45:00,52.2,49.4,29.97,WSW,237,6.0,8.0,90,0.00,,,0.08,0,Wunderground v.1.15,2013-02-12 00:45:00,
2013-02-11 19:50:00,52.2,49.4,29.96,WSW,254,6.0,6.0,90,0.00,,,0.08,0,Wunderground v.1.15,2013-02-12 00:50:00,
2013-02-11 20:00:00,52.1,48.7,29.97,WSW,237,6.0,6.0,88,0.00,,,0.08,0,Wunderground v.1.15,2013-02-12 01:00:00,
2013-02-11 20:05:00,52.1,48.7,29.97,WSW,237,6.0,7.0,88,0.00,,,0.08,0,Wunderground v.1.15,2013-02-12 01:05:00,
2013-02-11 20:15:00,51.9,47.8,29.97,WSW,249,4.0,5.0,86,0.00,,,0.08,0,Wunderground v.1.15,2013-02-12 01:15:00,
2013-02-11 20:20:00,51.7,47.3,29.97,SW,236,4.0,6.0,85,0.00,,,0.08,0,Wunderground v.1.15,2013-02-12 01:20:00,
2013-02-11 20:30:00,51.6,46.6,29.97,WSW,245,4.0,4.0,83,0.00,,,0.08,0,Wunderground v.1.15,2013-02-12 01:30:00,
2013-02-11 23:05:00,49.9,38.6,29.98,SW,226,1.0,1.0,65,0.00,,,0.08,0,Wunderground v.1.15,2013-02-12 04:05:00,
2013-02-11 23:10:00,49.7,38.8,29.99,SW,226,0.0,1.0,66,0.00,,,0.08,0,Wunderground v.1.15,2013-02-12 04:10:00,
2013-02-11 23:20:00,49.2,37.9,29.99,SW,223,0.0,1.0,65,0.00,,,0.08,0,Wunderground v.1.15,2013-02-12 04:20:00,
2013-02-11 23:25:00,49.0,37.7,29.99,SW,223,0.0,1.0,65,0.00,,,0.08,0,Wunderground v.1.15,2013-02-12 04:25:00,
2013-02-11 23:35:00,48.8,36.8,29.99,SW,222,0.0,2.0,63,0.00,,,0.08,0,Wunderground v.1.15,2013-02-12 04:35:00,
2013-02-11 23:40:00,48.7,37.1,29.99,SW,222,0.0,2.0,64,0.00,,,0.08,0,Wunderground v.1.15,2013-02-12 04:40:00,
2013-02-11 23:45:00,48.6,37.4,29.99,SW,222,0.0,0.0,65,0.00,,,0.08,0,Wunderground v.1.15,2013-02-12 04:45:00,
2013-02-11 23:55:00,48.4,36.4,29.99,SW,222,1.0,1.0,63,0.00,,,0.08,0,Wunderground v.1.15,2013-02-12 04:55:00,